Time;durP1;ratioP1;P1;durP2;ratioP2;P2;SDS_P1;SDS_P2;PMS_P1;PMS_P2;Temp;Humidity;BMP_temperature;BMP_pressure;BME280_temperature;BME280_humidity;BME280_pressure;Samples;Min_cycle;Max_cycle;Signal;HPM_P1;HPM_P2
2021/09/14 00:02:19;;;;;;;2.80;1.25;;;;;;;12.82;100.00;100977.13;6367826;23;20243;-79
2021/09/14 00:04:49;;;;;;;4.90;1.70;;;;;;;12.73;100.00;100972.25;6367578;23;20073;-79
2021/09/14 00:07:19;;;;;;;3.25;1.65;;;;;;;12.66;100.00;100981.25;6368019;23;20005;-79
2021/09/14 00:09:50;;;;;;;2.63;1.73;;;;;;;12.83;100.00;100965.72;6460360;22;20368;-79
2021/09/14 00:12:20;;;;;;;2.55;1.60;;;;;;;12.71;100.00;100968.84;6368249;23;20009;-80
2021/09/14 00:14:50;;;;;;;2.15;1.50;;;;;;;12.64;100.00;100977.00;6367835;23;20001;-80
2021/09/14 00:17:21;;;;;;;2.83;1.60;;;;;;;12.61;100.00;100975.31;6367678;23;20064;-79
2021/09/14 00:19:51;;;;;;;2.42;1.70;;;;;;;12.67;100.00;100972.47;6367747;23;20016;-79
2021/09/14 00:22:21;;;;;;;2.83;1.70;;;;;;;12.82;100.00;100971.88;6368074;23;20005;-78
2021/09/14 00:24:51;;;;;;;2.17;1.50;;;;;;;12.74;100.00;100967.84;6367561;23;20241;-79
2021/09/14 00:27:22;;;;;;;3.63;1.70;;;;;;;12.66;100.00;100975.16;6459414;22;20065;-80
2021/09/14 00:29:52;;;;;;;2.08;1.40;;;;;;;12.67;100.00;100975.09;6368384;23;20001;-79
2021/09/14 00:32:22;;;;;;;3.15;1.40;;;;;;;12.79;100.00;100972.00;6366963;23;20441;-79
2021/09/14 00:34:53;;;;;;;2.55;1.70;;;;;;;12.73;100.00;100971.38;6361534;23;20005;-78
2021/09/14 00:37:23;;;;;;;5.60;1.90;;;;;;;12.91;100.00;100966.28;6367879;23;20009;-78
2021/09/14 00:39:53;;;;;;;2.45;1.60;;;;;;;12.90;100.00;100954.94;6368529;23;20004;-78
2021/09/14 00:42:24;;;;;;;2.88;1.60;;;;;;;12.75;100.00;100956.44;6368781;23;20006;-78
2021/09/14 00:44:54;;;;;;;3.15;1.92;;;;;;;12.66;100.00;100965.50;6367331;23;20005;-79
2021/09/14 00:47:24;;;;;;;3.93;1.43;;;;;;;12.48;100.00;100963.56;6368912;23;20034;-79
2021/09/14 00:49:54;;;;;;;3.13;1.38;;;;;;;12.43;100.00;100957.66;6368536;23;20229;-79
2021/09/14 00:52:25;;;;;;;1.33;1.10;;;;;;;12.44;100.00;100958.53;6368678;23;20009;-79
2021/09/14 00:54:55;;;;;;;1.55;1.02;;;;;;;12.67;100.00;100955.88;6368924;23;20335;-79
2021/09/14 00:57:26;;;;;;;2.90;1.25;;;;;;;12.51;100.00;100953.00;6368325;23;20005;-79
2021/09/14 00:59:56;;;;;;;2.10;0.98;;;;;;;12.46;100.00;100957.53;6369519;23;20001;-79
2021/09/14 01:02:26;;;;;;;1.23;0.98;;;;;;;12.47;100.00;100946.13;6368836;23;20084;-79
2021/09/14 01:04:57;;;;;;;1.70;0.98;;;;;;;12.64;100.00;100948.16;6368195;23;20088;-79
2021/09/14 01:07:27;;;;;;;1.50;1.08;;;;;;;12.62;100.00;100942.94;6461161;22;20013;-79
2021/09/14 01:09:59;;;;;;;2.75;1.10;;;;;;;12.47;100.00;100940.91;6368141;23;20012;-79
2021/09/14 01:12:30;;;;;;;1.60;1.10;;;;;;;12.38;100.00;100941.25;6368790;23;20002;-79
2021/09/14 01:15:00;;;;;;;1.83;1.30;;;;;;;12.33;100.00;100940.53;6367537;23;20139;-79
2021/09/14 01:17:30;;;;;;;1.80;1.30;;;;;;;12.47;100.00;100945.31;6369500;23;20001;-79
2021/09/14 01:20:02;;;;;;;1.48;1.08;;;;;;;12.31;100.00;100950.22;6368198;23;20006;-79
2021/09/14 01:22:34;;;;;;;2.70;1.33;;;;;;;12.32;100.00;100940.63;6460966;22;20268;-79
2021/09/14 01:25:20;;;;;;;1.90;1.45;;;;;;;12.38;100.00;100936.00;6460565;22;20503;-79
2021/09/14 01:27:51;;;;;;;2.33;1.35;;;;;;;12.41;100.00;100938.50;6368217;23;20029;-79
2021/09/14 01:30:22;;;;;;;3.95;1.40;;;;;;;12.26;100.00;100944.31;6460615;22;20084;-79
2021/09/14 01:32:54;;;;;;;2.50;1.25;;;;;;;12.31;100.00;100933.66;6368468;23;20033;-79
2021/09/14 01:35:27;;;;;;;2.83;1.48;;;;;;;12.37;100.00;100942.16;6367743;23;20005;-79
2021/09/14 01:37:58;;;;;;;2.63;1.35;;;;;;;12.37;100.00;100944.78;6366931;23;20028;-79
2021/09/14 01:40:28;;;;;;;2.35;1.58;;;;;;;12.27;100.00;100939.94;6460377;22;20043;-79
2021/09/14 01:42:59;;;;;;;4.72;1.65;;;;;;;12.37;100.00;100934.31;6369079;23;20445;-79
2021/09/14 01:45:29;;;;;;;2.67;1.80;;;;;;;12.37;100.00;100929.06;6366867;23;20006;-79
2021/09/14 01:47:59;;;;;;;3.57;2.40;;;;;;;12.40;100.00;100935.94;6368805;23;20067;-79
2021/09/14 01:50:30;;;;;;;5.97;2.20;;;;;;;12.47;100.00;100934.81;6368937;23;20240;-79
2021/09/14 01:53:01;;;;;;;4.35;2.60;;;;;;;12.51;100.00;100923.28;6368730;23;20059;-79
2021/09/14 01:55:32;;;;;;;3.65;2.60;;;;;;;12.50;100.00;100927.66;6367245;23;20005;-79
2021/09/14 01:58:03;;;;;;;3.80;2.50;;;;;;;12.38;100.00;100922.91;6461247;22;20008;-79
2021/09/14 02:00:36;;;;;;;4.60;2.42;;;;;;;12.28;100.00;100923.31;6368543;23;20002;-79
2021/09/14 02:03:17;;;;;;;4.95;2.50;;;;;;;12.35;100.00;100927.41;6368939;23;20136;-79
2021/09/14 02:08:47;;;;;;;3.90;2.07;;;;;;;12.12;100.00;100930.00;6368741;23;20016;-79
2021/09/14 02:33:55;;;;;;;5.18;2.78;;;;;;;12.26;100.00;100915.50;6373097;23;20013;-79
2021/09/14 02:39:26;;;;;;;4.85;3.30;;;;;;;12.39;100.00;100928.97;6373620;23;20037;-80
2021/09/14 02:58:50;;;;;;;3.58;2.75;;;;;;;12.34;100.00;100902.97;6374033;23;20013;-80
2021/09/14 03:01:22;;;;;;;6.68;2.92;;;;;;;12.24;100.00;100909.44;6466409;22;20006;-81
2021/09/14 03:03:54;;;;;;;3.92;2.60;;;;;;;12.20;100.00;100907.88;6372954;23;20008;-79
2021/09/14 03:06:25;;;;;;;5.03;2.78;;;;;;;12.17;100.00;100907.09;6464818;22;20006;-80
2021/09/14 03:08:55;;;;;;;5.15;2.47;;;;;;;11.93;100.00;100903.63;6372611;23;20018;-80
2021/09/14 03:11:25;;;;;;;5.93;2.80;;;;;;;11.81;100.00;100898.78;6466028;22;20010;-79
2021/09/14 03:13:56;;;;;;;7.32;3.20;;;;;;;11.91;100.00;100897.56;6464978;22;20050;-80
2021/09/14 03:16:26;;;;;;;4.18;2.70;;;;;;;11.88;100.00;100902.94;6373607;23;20009;-80
2021/09/14 03:18:56;;;;;;;4.68;2.63;;;;;;;11.92;100.00;100898.44;6465768;22;20006;-80
2021/09/14 03:21:27;;;;;;;5.55;2.90;;;;;;;11.79;100.00;100895.38;6464893;22;20333;-79
2021/09/14 03:23:57;;;;;;;4.00;2.60;;;;;;;11.74;100.00;100892.09;6368796;23;20009;-79
2021/09/14 03:26:27;;;;;;;4.60;2.80;;;;;;;11.73;100.00;100893.00;6463566;22;20002;-79
2021/09/14 03:28:58;;;;;;;3.87;2.60;;;;;;;11.74;100.00;100896.44;6370737;23;20025;-79
2021/09/14 03:31:28;;;;;;;6.72;2.65;;;;;;;11.66;100.00;100899.38;6370312;23;20253;-79
2021/09/14 03:33:58;;;;;;;4.90;2.72;;;;;;;11.64;100.00;100895.91;6462239;22;20063;-79
2021/09/14 03:36:29;;;;;;;4.90;2.42;;;;;;;11.72;100.00;100890.41;6370939;23;20004;-79
2021/09/14 03:38:59;;;;;;;6.88;2.95;;;;;;;11.67;100.00;100894.97;6370972;23;20002;-79
2021/09/14 03:41:29;;;;;;;3.97;2.78;;;;;;;11.75;100.00;100903.44;6372378;23;20025;-79
2021/09/14 03:44:00;;;;;;;5.95;3.20;;;;;;;11.71;100.00;100902.66;6463402;22;19997;-79
2021/09/14 03:46:30;;;;;;;4.78;2.88;;;;;;;11.78;100.00;100901.53;6464428;22;20011;-79
2021/09/14 03:49:02;;;;;;;6.38;3.42;;;;;;;11.79;100.00;100905.84;6463796;22;20005;-79
2021/09/14 03:51:33;;;;;;;6.10;2.65;;;;;;;11.79;100.00;100897.16;6463411;22;20001;-79
2021/09/14 03:54:03;;;;;;;4.25;2.40;;;;;;;11.93;100.00;100887.91;6463949;22;20161;-79
2021/09/14 03:56:33;;;;;;;5.63;2.63;;;;;;;11.94;100.00;100894.00;6465208;22;20001;-79
2021/09/14 03:59:04;;;;;;;4.13;2.22;;;;;;;11.59;100.00;100897.00;6373161;23;20086;-79
2021/09/14 04:01:37;;;;;;;5.25;2.67;;;;;;;11.65;100.00;100902.84;6464479;22;20007;-79
2021/09/14 04:04:14;;;;;;;4.15;2.47;;;;;;;11.72;100.00;100885.19;6371911;23;20009;-79
2021/09/14 04:09:21;;;;;;;3.88;2.40;;;;;;;11.63;100.00;100894.22;6371955;23;20472;-79
2021/09/14 04:11:51;;;;;;;3.88;2.20;;;;;;;11.65;100.00;100883.69;6373148;23;20009;-79
2021/09/14 04:14:21;;;;;;;6.88;2.50;;;;;;;11.64;100.00;100882.00;6464590;22;20002;-79
2021/09/14 04:16:52;;;;;;;3.92;2.30;;;;;;;11.73;100.00;100882.53;6372601;23;19998;-79
2021/09/14 04:19:22;;;;;;;4.93;2.42;;;;;;;11.58;100.00;100883.06;6464443;22;20332;-79
2021/09/14 04:21:52;;;;;;;4.32;2.15;;;;;;;11.37;100.00;100890.75;6465320;22;20009;-79
2021/09/14 04:24:23;;;;;;;6.53;2.20;;;;;;;11.30;100.00;100887.47;6372540;23;20001;-79
2021/09/14 04:26:54;;;;;;;3.80;2.00;;;;;;;11.48;100.00;100884.22;6465824;22;20012;-79
2021/09/14 04:29:24;;;;;;;4.60;2.15;;;;;;;11.37;100.00;100889.00;6372764;23;20001;-79
2021/09/14 04:31:54;;;;;;;3.88;2.20;;;;;;;11.31;100.00;100881.31;6465096;22;20024;-80
2021/09/14 04:34:25;;;;;;;4.70;2.42;;;;;;;11.25;100.00;100886.78;6464653;22;20032;-79
2021/09/14 04:36:56;;;;;;;5.15;2.15;;;;;;;11.43;100.00;100885.31;6464857;22;20004;-79
2021/09/14 04:39:26;;;;;;;4.07;2.30;;;;;;;11.61;100.00;100885.56;6372470;23;20005;-79
2021/09/14 04:41:56;;;;;;;4.75;2.33;;;;;;;11.58;100.00;100890.06;6371987;23;20073;-79
2021/09/14 04:44:27;;;;;;;3.47;2.25;;;;;;;11.29;100.00;100887.53;6463649;22;20009;-79
2021/09/14 04:46:57;;;;;;;3.13;2.03;;;;;;;11.39;100.00;100886.31;6464941;22;20010;-79
2021/09/14 04:49:27;;;;;;;3.80;2.40;;;;;;;11.42;100.00;100889.69;6465386;22;20001;-79
2021/09/14 04:51:58;;;;;;;3.53;2.25;;;;;;;11.39;100.00;100891.53;6371568;23;20008;-79
2021/09/14 04:54:28;;;;;;;3.60;2.33;;;;;;;11.33;100.00;100883.91;6371813;23;20001;-79
2021/09/14 04:56:58;;;;;;;2.97;2.15;;;;;;;11.44;100.00;100887.03;6371239;23;19997;-79
2021/09/14 04:59:29;;;;;;;4.80;2.53;;;;;;;11.49;100.00;100887.72;6371935;23;20032;-79
2021/09/14 05:02:00;;;;;;;6.03;2.50;;;;;;;11.74;100.00;100881.59;6372232;23;20044;-79
2021/09/14 05:04:30;;;;;;;3.85;2.40;;;;;;;11.50;100.00;100886.81;6372690;23;20008;-79
2021/09/14 05:07:00;;;;;;;3.80;2.20;;;;;;;11.51;100.00;100884.16;6372540;23;20005;-79
2021/09/14 05:09:31;;;;;;;2.92;1.75;;;;;;;11.69;100.00;100885.28;6371432;23;20005;-79
2021/09/14 05:12:01;;;;;;;5.53;2.42;;;;;;;11.53;100.00;100882.31;6464905;22;20039;-79
2021/09/14 05:14:32;;;;;;;4.20;1.95;;;;;;;11.63;100.00;100869.81;6463738;22;20464;-79
2021/09/14 05:17:02;;;;;;;4.38;1.85;;;;;;;11.63;100.00;100872.44;6371954;23;20032;-79
2021/09/14 05:19:37;;;;;;;6.45;2.10;;;;;;;11.63;100.00;100867.19;6372738;23;20036;-79
2021/09/14 05:22:07;;;;;;;6.97;1.83;;;;;;;11.70;100.00;100872.16;6464324;22;20335;-79
2021/09/14 05:24:38;;;;;;;5.32;2.47;;;;;;;11.68;100.00;100860.88;6367900;23;20009;-79
2021/09/14 05:27:08;;;;;;;3.83;2.33;;;;;;;11.81;100.00;100867.38;6465027;22;20085;-79
2021/09/14 05:29:38;;;;;;;5.03;2.42;;;;;;;11.99;100.00;100858.84;6464891;22;20005;-79
2021/09/14 05:32:10;;;;;;;5.28;2.45;;;;;;;12.18;100.00;100859.91;6463682;22;20128;-79
2021/09/14 05:34:40;;;;;;;3.85;1.90;;;;;;;12.09;100.00;100847.13;6462824;22;20040;-79
2021/09/14 05:37:11;;;;;;;4.72;1.90;;;;;;;12.32;100.00;100856.75;6371082;23;20005;-79
2021/09/14 05:39:42;;;;;;;2.97;1.83;;;;;;;12.35;100.00;100848.75;6372297;23;20021;-79
2021/09/14 05:42:15;;;;;;;6.05;2.17;;;;;;;12.41;100.00;100851.13;6372783;23;20015;-79
2021/09/14 05:44:45;;;;;;;3.38;1.88;;;;;;;12.41;100.00;100857.25;6462949;22;20002;-79
2021/09/14 05:47:16;;;;;;;3.92;2.20;;;;;;;12.59;100.00;100859.16;6464175;22;20013;-79
2021/09/14 05:49:46;;;;;;;4.97;1.90;;;;;;;12.52;100.00;100852.47;6464508;22;20012;-79
2021/09/14 05:52:16;;;;;;;4.32;2.10;;;;;;;12.39;100.00;100847.72;6372556;23;20185;-79
2021/09/14 05:54:47;;;;;;;3.30;2.00;;;;;;;12.37;100.00;100860.03;6463990;22;20068;-79
2021/09/14 05:57:17;;;;;;;3.33;2.03;;;;;;;12.53;100.00;100848.06;6465103;22;20108;-79
2021/09/14 05:59:47;;;;;;;4.47;2.20;;;;;;;12.64;100.00;100851.97;6372364;23;20349;-79
2021/09/14 06:02:18;;;;;;;3.60;2.20;;;;;;;12.58;100.00;100844.34;6371839;23;20009;-80
2021/09/14 06:04:48;;;;;;;3.10;2.17;;;;;;;12.68;100.00;100850.94;6464012;22;20267;-79
2021/09/14 06:07:20;;;;;;;4.10;2.60;;;;;;;12.74;100.00;100849.81;6372359;23;19998;-79
2021/09/14 06:09:50;;;;;;;4.40;2.60;;;;;;;12.81;100.00;100849.50;6464976;22;20268;-79
2021/09/14 06:12:21;;;;;;;4.80;2.80;;;;;;;12.98;100.00;100846.25;6464694;22;20042;-79
2021/09/14 06:14:51;;;;;;;4.10;2.42;;;;;;;13.22;100.00;100851.34;6464674;22;20088;-79
2021/09/14 06:17:21;;;;;;;4.97;2.00;;;;;;;13.23;100.00;100853.88;6464577;22;20013;-79
2021/09/14 06:19:52;;;;;;;4.28;2.40;;;;;;;13.42;100.00;100859.22;6372558;23;20008;-79
2021/09/14 06:22:22;;;;;;;6.28;3.30;;;;;;;13.40;100.00;100866.31;6371441;23;20392;-79
2021/09/14 06:24:52;;;;;;;5.90;3.67;;;;;;;13.42;100.00;100867.09;6367097;23;20013;-79
2021/09/14 06:27:23;;;;;;;6.93;4.90;;;;;;;13.46;100.00;100860.81;6372045;23;20084;-79
2021/09/14 06:29:53;;;;;;;8.32;5.72;;;;;;;13.67;100.00;100862.50;6465322;22;20444;-79
2021/09/14 06:32:24;;;;;;;12.00;6.25;;;;;;;13.84;100.00;100854.72;6371860;23;20005;-79
2021/09/14 06:34:54;;;;;;;9.25;6.18;;;;;;;14.06;100.00;100850.25;6463823;22;20468;-79
2021/09/14 06:37:24;;;;;;;8.65;6.18;;;;;;;14.26;100.00;100850.22;6464413;22;20001;-79
2021/09/14 06:39:54;;;;;;;11.93;7.70;;;;;;;14.50;100.00;100849.06;6463764;22;20055;-79
2021/09/14 06:42:25;;;;;;;10.45;6.78;;;;;;;14.59;100.00;100853.91;6372121;23;20051;-79
2021/09/14 06:44:57;;;;;;;11.27;7.40;;;;;;;14.63;100.00;100853.66;6463727;22;20008;-79
2021/09/14 06:47:27;;;;;;;9.80;7.07;;;;;;;14.74;100.00;100843.47;6370786;23;20009;-79
2021/09/14 06:49:57;;;;;;;11.80;6.75;;;;;;;14.82;100.00;100846.63;6464603;22;20494;-79
2021/09/14 06:52:27;;;;;;;13.63;8.30;;;;;;;14.95;100.00;100845.94;6371268;23;20059;-79
2021/09/14 06:54:58;;;;;;;17.10;9.07;;;;;;;15.39;100.00;100843.75;6371901;23;20045;-79
2021/09/14 06:57:31;;;;;;;12.90;7.80;;;;;;;15.64;100.00;100834.50;6464786;22;20329;-79
2021/09/14 07:00:02;;;;;;;13.00;7.35;;;;;;;15.90;100.00;100836.59;6464748;22;20009;-79
2021/09/14 07:02:32;;;;;;;12.30;7.95;;;;;;;16.64;100.00;100830.78;6370678;23;20062;-79
2021/09/14 07:05:04;;;;;;;8.27;5.63;;;;;;;18.70;100.00;100822.47;6372108;23;20029;-79
2021/09/14 07:07:35;;;;;;;6.32;4.50;;;;;;;20.46;88.69;100816.44;6371511;23;20002;-80
2021/09/14 07:10:06;;;;;;;7.83;4.10;;;;;;;20.87;85.15;100815.13;6372441;23;20008;-80
2021/09/14 07:12:36;;;;;;;6.53;4.43;;;;;;;20.49;84.56;100822.34;6463694;22;20247;-80
2021/09/14 07:15:07;;;;;;;11.80;3.75;;;;;;;21.19;84.24;100802.91;6369815;23;20037;-80
2021/09/14 07:17:37;;;;;;;4.93;3.60;;;;;;;21.93;82.59;100803.34;6370558;23;20100;-80
2021/09/14 07:20:08;;;;;;;5.50;3.40;;;;;;;22.82;78.74;100806.63;6464299;22;20006;-80
2021/09/14 07:22:39;;;;;;;6.32;3.30;;;;;;;22.99;78.28;100811.44;6464475;22;20127;-80
2021/09/14 07:25:09;;;;;;;4.10;3.30;;;;;;;23.13;76.15;100808.50;6464373;22;20010;-80
2021/09/14 07:27:40;;;;;;;5.95;3.78;;;;;;;22.98;76.96;100817.72;6464626;22;20005;-81
2021/09/14 07:30:10;;;;;;;5.13;3.28;;;;;;;23.43;74.86;100813.06;6466519;22;20029;-80
2021/09/14 07:32:40;;;;;;;6.13;3.63;;;;;;;23.38;76.65;100816.13;6466880;22;20476;-80
2021/09/14 07:35:11;;;;;;;5.00;3.37;;;;;;;24.29;70.98;100817.06;6466784;22;20005;-80
2021/09/14 07:37:41;;;;;;;5.85;3.63;;;;;;;24.17;72.23;100816.31;6466733;22;20312;-80
2021/09/14 07:40:12;;;;;;;4.97;3.23;;;;;;;25.45;67.46;100813.50;6465861;22;20191;-80
2021/09/14 07:42:42;;;;;;;5.10;3.30;;;;;;;24.86;69.80;100813.59;6466789;22;20233;-80
2021/09/14 07:45:12;;;;;;;5.22;3.38;;;;;;;25.49;68.71;100812.22;6369091;23;20002;-80
2021/09/14 07:47:43;;;;;;;4.03;3.07;;;;;;;25.96;67.25;100809.44;6374031;23;20007;-80
2021/09/14 07:50:13;;;;;;;4.37;3.30;;;;;;;26.26;65.26;100808.31;6466857;22;20271;-80
2021/09/14 07:52:44;;;;;;;4.47;3.30;;;;;;;24.86;69.15;100810.94;6466408;22;20373;-80
2021/09/14 07:55:14;;;;;;;6.15;3.60;;;;;;;24.80;71.32;100799.94;6373492;23;20062;-80
2021/09/14 07:57:45;;;;;;;4.22;2.90;;;;;;;25.78;67.35;100805.78;6466896;22;20005;-80
2021/09/14 08:00:15;;;;;;;5.30;2.95;;;;;;;25.27;66.45;100799.09;6373043;23;20051;-81
2021/09/14 08:02:57;;;;;;;6.15;2.90;;;;;;;24.95;69.06;100794.03;6373867;23;20005;-80
2021/09/14 08:05:28;;;;;;;5.13;3.08;;;;;;;25.85;65.79;100795.38;6373688;23;20597;-80
2021/09/14 08:07:58;;;;;;;4.75;3.05;;;;;;;25.14;66.26;100793.19;6466373;22;20055;-81
2021/09/14 08:10:28;;;;;;;4.07;2.77;;;;;;;25.41;68.33;100806.69;6374373;23;20372;-80
2021/09/14 08:12:58;;;;;;;3.90;2.60;;;;;;;25.24;67.37;100804.75;6464159;22;20244;-80
2021/09/14 08:15:29;;;;;;;3.93;2.70;;;;;;;25.58;65.99;100801.47;6464555;22;20005;-80
2021/09/14 08:18:00;;;;;;;4.50;2.50;;;;;;;25.79;66.36;100806.63;6372413;23;20001;-80
2021/09/14 08:20:30;;;;;;;3.33;2.50;;;;;;;25.54;67.49;100799.22;6458547;22;20009;-81
2021/09/14 08:23:00;;;;;;;4.15;2.58;;;;;;;25.38;66.13;100801.66;6366865;23;19998;-80
2021/09/14 08:25:30;;;;;;;6.13;2.88;;;;;;;24.03;68.49;100826.53;6367470;23;20006;-78
2021/09/14 08:28:01;;;;;;;4.38;2.55;;;;;;;24.59;68.64;100817.88;6366843;23;20349;-78
2021/09/14 08:30:31;;;;;;;3.73;2.60;;;;;;;25.46;65.88;100820.53;6366754;23;20120;-78
2021/09/14 08:33:02;;;;;;;4.22;2.80;;;;;;;25.05;66.95;100820.78;6367781;23;20005;-81
2021/09/14 08:35:32;;;;;;;3.75;2.72;;;;;;;24.13;69.25;100822.94;6367360;23;20376;-79
2021/09/14 08:38:03;;;;;;;6.87;2.83;;;;;;;24.86;66.96;100818.09;6367408;23;19997;-80
2021/09/14 08:40:33;;;;;;;4.07;2.65;;;;;;;24.24;68.04;100827.31;6367065;23;20012;-77
2021/09/14 08:43:04;;;;;;;4.47;2.70;;;;;;;25.36;67.16;100817.00;6367482;23;20009;-77
2021/09/14 08:45:34;;;;;;;3.90;2.38;;;;;;;25.79;65.74;100814.66;6367634;23;20029;-80
2021/09/14 08:48:05;;;;;;;4.93;2.88;;;;;;;24.90;67.76;100820.34;6368513;23;20009;-82
2021/09/14 08:50:35;;;;;;;3.22;2.67;;;;;;;25.86;65.46;100818.50;6368374;23;20479;-77
2021/09/14 08:53:07;;;;;;;4.23;2.60;;;;;;;25.14;66.93;100815.44;6367633;23;20005;-77
2021/09/14 08:55:37;;;;;;;3.60;2.47;;;;;;;25.42;67.33;100813.75;6367255;23;20260;-81
2021/09/14 08:58:09;;;;;;;4.25;2.47;;;;;;;26.09;64.95;100809.97;6368504;23;20453;-78
2021/09/14 09:00:43;;;;;;;3.47;2.53;;;;;;;25.76;66.58;100802.41;6368042;23;20008;-79
2021/09/14 09:03:29;;;;;;;3.40;2.33;;;;;;;25.62;66.89;100800.19;6368132;23;20029;-81
2021/09/14 09:06:00;;;;;;;4.38;2.42;;;;;;;25.49;66.07;100804.19;6367671;23;20005;-81
2021/09/14 09:08:31;;;;;;;3.77;2.80;;;;;;;24.76;67.91;100803.84;6368151;23;20001;-78
2021/09/14 09:11:04;;;;;;;5.45;2.63;;;;;;;25.31;67.50;100811.25;6367915;23;20329;-81
2021/09/14 09:13:44;;;;;;;3.65;2.45;;;;;;;25.02;68.14;100810.34;6460516;22;20009;-79
2021/09/14 09:16:21;;;;;;;3.53;2.67;;;;;;;;;;6367680;23;20036;-79
2021/09/14 09:18:59;;;;;;;4.32;2.85;;;;;;;24.15;71.31;100804.06;6368558;23;20012;-78
2021/09/14 09:21:39;;;;;;;5.85;3.63;;;;;;;23.15;73.67;100792.34;6367976;23;20408;-81
2021/09/14 09:24:13;;;;;;;6.25;4.07;;;;;;;22.77;74.68;100807.97;6366945;23;20384;-81
2021/09/14 09:26:44;;;;;;;5.97;4.43;;;;;;;22.43;76.61;100803.69;6368194;23;20001;-80
2021/09/14 09:29:21;;;;;;;5.68;4.45;;;;;;;22.74;76.75;100809.09;6366385;23;20379;-78
2021/09/14 09:31:52;;;;;;;5.38;4.25;;;;;;;22.89;75.84;100802.50;6368341;23;20410;-77
2021/09/14 09:34:27;;;;;;;7.45;4.28;;;;;;;22.92;76.39;100801.38;6366739;23;20001;-78
2021/09/14 09:37:06;;;;;;;5.80;4.18;;;;;;;22.67;76.06;100802.56;6367817;23;20012;-77
2021/09/14 09:39:37;;;;;;;6.05;4.07;;;;;;;22.63;77.30;100799.44;6367770;23;20132;-77
2021/09/14 09:42:08;;;;;;;6.60;4.95;;;;;;;22.55;78.68;100800.06;6369058;23;20036;-77
2021/09/14 09:44:50;;;;;;;6.55;4.85;;;;;;;22.76;77.60;100803.63;6368027;23;19997;-77
2021/09/14 09:47:21;;;;;;;6.07;4.60;;;;;;;22.97;76.92;100799.19;6367095;23;20517;-78
2021/09/14 09:49:52;;;;;;;7.93;5.22;;;;;;;22.48;75.77;100795.34;6367373;23;20025;-78
2021/09/14 09:52:23;;;;;;;8.02;5.32;;;;;;;22.65;77.28;100789.50;6367229;23;20005;-77
2021/09/14 09:54:53;;;;;;;7.88;5.80;;;;;;;22.38;77.34;100789.91;6367072;23;20016;-77
2021/09/14 09:57:24;;;;;;;7.03;5.55;;;;;;;22.33;77.25;100788.56;6367641;23;20036;-77
2021/09/14 09:59:55;;;;;;;7.80;5.22;;;;;;;22.54;78.23;100795.69;6366826;23;20013;-77
2021/09/14 10:02:27;;;;;;;7.15;5.00;;;;;;;22.72;78.11;100791.53;6367025;23;20005;-77
2021/09/14 10:05:05;;;;;;;8.45;5.43;;;;;;;22.71;76.49;100788.00;6365916;23;20013;-79
2021/09/14 10:07:37;;;;;;;7.43;5.18;;;;;;;22.73;77.07;100789.72;6366718;23;20088;-77
2021/09/14 10:10:07;;;;;;;8.30;5.32;;;;;;;22.47;77.36;100793.66;6368610;23;20231;-78
2021/09/14 10:12:37;;;;;;;7.47;5.70;;;;;;;22.56;77.27;100777.75;6367948;23;20340;-78
2021/09/14 10:15:14;;;;;;;9.20;5.40;;;;;;;22.71;79.17;100781.84;6367082;23;20322;-78
2021/09/14 10:17:52;;;;;;;8.75;5.63;;;;;;;22.68;76.51;100772.28;6368283;23;20181;-78
2021/09/14 10:20:25;;;;;;;6.13;5.20;;;;;;;22.82;76.48;100769.31;6367134;23;20475;-78
2021/09/14 10:23:07;;;;;;;8.55;5.07;;;;;;;23.09;77.25;100761.69;6367365;23;20421;-80
2021/09/14 10:25:37;;;;;;;8.80;5.60;;;;;;;22.71;77.95;100772.00;6367348;23;20055;-80
2021/09/14 10:28:13;;;;;;;8.23;5.95;;;;;;;22.69;77.10;100763.28;6366004;23;20001;-81
2021/09/14 10:30:43;;;;;;;;;;;;;;;22.69;77.74;100757.13;6368145;23;20040;-77
2021/09/14 10:33:24;;;;;;;6.75;5.45;;;;;;;22.64;77.40;100762.00;6366953;23;19904;-84
2021/09/14 10:35:55;;;;;;;10.68;5.75;;;;;;;22.49;76.72;100749.06;6367212;23;20032;-78
2021/09/14 10:38:25;;;;;;;7.65;5.30;;;;;;;22.59;79.03;100750.84;6367517;23;20344;-82
2021/09/14 10:40:56;;;;;;;8.32;5.68;;;;;;;22.40;77.32;100748.00;6367092;23;20398;-80
2021/09/14 10:43:34;;;;;;;7.35;5.68;;;;;;;22.51;77.65;100740.00;6368123;23;20337;-82
2021/09/14 10:46:06;;;;;;;7.43;5.68;;;;;;;22.62;77.86;100744.44;6357313;23;20444;-80
2021/09/14 10:48:47;;;;;;;8.18;5.97;;;;;;;22.68;77.23;100728.78;6367866;23;20013;-79
2021/09/14 10:51:18;;;;;;;7.45;5.90;;;;;;;22.74;77.84;100728.28;6367204;23;20032;-78
2021/09/14 10:54:06;;;;;;;6.88;5.45;;;;;;;22.60;77.91;100736.56;6366911;23;20005;-81
2021/09/14 10:56:47;;;;;;;8.88;5.15;;;;;;;22.64;76.91;100734.50;6368302;23;20081;-79
2021/09/14 10:59:18;;;;;;;7.75;5.65;;;;;;;22.57;77.54;100736.00;6368459;23;20071;-78
2021/09/14 11:01:49;;;;;;;8.32;5.32;;;;;;;22.57;78.21;100734.16;6366749;23;20014;-81
2021/09/14 11:04:26;;;;;;;6.30;5.00;;;;;;;22.63;78.14;100724.81;6366481;23;20032;-81
2021/09/14 11:06:57;;;;;;;6.57;5.15;;;;;;;22.67;76.33;100722.59;6367208;23;20005;-79
2021/09/14 11:09:27;;;;;;;6.90;5.10;;;;;;;22.67;76.89;100721.78;6366674;23;20031;-80
2021/09/14 11:11:57;;;;;;;7.00;5.00;;;;;;;22.64;77.07;100727.38;6366593;23;20005;-79
2021/09/14 11:14:35;;;;;;;8.07;5.30;;;;;;;22.88;77.84;100723.47;6366146;23;20009;-78
2021/09/14 11:17:06;;;;;;;7.40;4.65;;;;;;;23.00;77.77;100727.78;6367676;23;20316;-78
2021/09/14 11:19:36;;;;;;;7.27;5.60;;;;;;;22.94;76.61;100728.31;6367603;23;20029;-76
2021/09/14 11:22:06;;;;;;;6.33;5.03;;;;;;;22.95;75.93;100727.34;6366503;23;20233;-77
2021/09/14 11:24:36;;;;;;;10.20;5.90;;;;;;;22.86;75.50;100722.75;6366050;23;20320;-78
2021/09/14 11:27:07;;;;;;;6.70;5.55;;;;;;;22.88;76.86;100723.47;6366636;23;20766;-78
2021/09/14 11:29:38;;;;;;;9.95;6.20;;;;;;;22.85;76.62;100726.41;6366554;23;20017;-76
2021/09/14 11:32:14;;;;;;;11.77;6.10;;;;;;;22.81;77.78;100711.66;6366440;23;20005;-80
2021/09/14 11:34:47;;;;;;;8.00;5.75;;;;;;;22.99;77.38;100718.09;6364422;23;20021;-77
2021/09/14 11:37:30;;;;;;;7.85;5.85;;;;;;;22.94;77.38;100714.97;6366523;23;20005;-77
2021/09/14 11:40:01;;;;;;;7.50;5.10;;;;;;;23.03;76.40;100722.19;6365521;23;20002;-77
2021/09/14 11:42:31;;;;;;;8.60;5.85;;;;;;;23.12;78.50;100712.59;6366279;23;20062;-78
2021/09/14 11:45:08;;;;;;;6.82;4.75;;;;;;;23.12;75.92;100713.44;6365610;23;20009;-77
2021/09/14 11:47:44;;;;;;;7.25;4.85;;;;;;;23.17;77.42;100710.41;6367287;23;20076;-77
2021/09/14 11:50:35;;;;;;;7.90;5.28;;;;;;;23.27;76.61;100712.16;6366289;23;20001;-81
2021/09/14 11:53:07;;;;;;;6.40;4.95;;;;;;;23.24;76.69;100712.41;6366514;23;20001;-77
2021/09/14 11:55:45;;;;;;;6.35;5.30;;;;;;;23.10;76.93;100702.03;6367099;23;20006;-77
2021/09/14 11:58:31;;;;;;;9.05;5.03;;;;;;;23.36;77.05;100710.53;6366761;23;20068;-77
2021/09/14 12:01:07;;;;;;;6.68;4.80;;;;;;;23.20;76.17;100705.63;6366242;23;20002;-77
2021/09/14 12:03:47;;;;;;;9.15;6.00;;;;;;;23.24;76.26;100706.22;6366229;23;20014;-77
2021/09/14 12:06:25;;;;;;;9.32;6.15;;;;;;;23.21;75.90;100701.97;6365937;23;20055;-77
2021/09/14 12:09:09;;;;;;;8.18;4.93;;;;;;;23.33;77.37;100695.59;6368317;23;20007;-78
2021/09/14 12:11:39;;;;;;;7.05;4.93;;;;;;;23.44;76.71;100692.88;6366563;23;20047;-80
2021/09/14 12:14:11;;;;;;;7.60;5.10;;;;;;;23.58;77.28;100689.00;6367561;23;20376;-78
2021/09/14 12:16:44;;;;;;;6.93;4.60;;;;;;;23.36;75.93;100695.34;6369008;23;20429;-81
2021/09/14 12:19:14;;;;;;;7.22;5.40;;;;;;;23.35;75.17;100682.97;6367906;23;20001;-78
2021/09/14 12:21:44;;;;;;;8.03;5.50;;;;;;;23.29;76.94;100680.00;6366848;23;20017;-77
2021/09/14 12:24:15;;;;;;;5.67;4.63;;;;;;;23.43;77.22;100675.16;6365587;23;20300;-77
2021/09/14 12:26:50;;;;;;;6.50;4.95;;;;;;;23.45;75.87;100675.03;6367984;23;20268;-77
2021/09/14 12:29:21;;;;;;;5.93;4.78;;;;;;;23.47;76.30;100668.56;6367014;23;20346;-77
2021/09/14 12:31:52;;;;;;;6.38;4.72;;;;;;;23.37;75.75;100659.66;6367956;23;20001;-77